createdAt,value
2023-11-16T00:00:35.240Z,98397.25
2023-11-16T00:05:37.397Z,98400.44
2023-11-16T00:10:39.393Z,98403.06
2023-11-16T00:15:41.622Z,98405.81
2023-11-16T00:20:43.831Z,98406.81
2023-11-16T00:25:45.964Z,98405.88
2023-11-16T00:30:48.019Z,98405.69
2023-11-16T00:35:50.268Z,98399.81
2023-11-16T00:40:52.310Z,98404.69
2023-11-16T00:45:55.695Z,98403.81
2023-11-16T00:50:57.957Z,98413.81
2023-11-16T00:55:59.899Z,98409.56
2023-11-16T01:01:02.046Z,98407.44
2023-11-16T01:06:04.454Z,98419.56
2023-11-16T01:11:06.574Z,98423.09
2023-11-16T01:16:12.597Z,98416.34
2023-11-16T01:21:15.306Z,98424.84
2023-11-16T01:26:17.748Z,98422.41
2023-11-16T01:31:19.819Z,98430.47
2023-11-16T01:36:22.001Z,98425.78
2023-11-16T01:41:24.120Z,98428.50
2023-11-16T01:46:26.169Z,98444.28
2023-11-16T01:51:29.097Z,98437.28
2023-11-16T01:56:33.100Z,98437.16
2023-11-16T02:01:35.860Z,98440.06
2023-11-16T02:06:40.046Z,98438.44
2023-11-16T02:11:42.248Z,98441.19
2023-11-16T02:16:44.549Z,98449.75
2023-11-16T02:21:46.800Z,98447.00
2023-11-16T02:26:48.921Z,98449.81
2023-11-16T02:31:51.021Z,98454.16
2023-11-16T02:36:53.032Z,98451.19
2023-11-16T02:41:55.105Z,98460.50
2023-11-16T02:46:57.177Z,98455.28
2023-11-16T02:51:59.313Z,98455.13
2023-11-16T02:57:01.389Z,98467.31
2023-11-16T03:02:03.491Z,98471.47
2023-11-16T03:07:05.625Z,98477.03
2023-11-16T03:12:08.163Z,98478.84
2023-11-16T03:17:10.187Z,98469.31
2023-11-16T03:22:12.232Z,98479.69
2023-11-16T03:27:14.357Z,98484.91
2023-11-16T03:32:16.475Z,98487.59
2023-11-16T03:37:18.454Z,98493.66
2023-11-16T03:42:20.545Z,98483.94
2023-11-16T03:47:22.653Z,98496.25
2023-11-16T03:52:24.701Z,98496.84
2023-11-16T03:57:26.822Z,98495.09
2023-11-16T04:02:31.446Z,98502.06
2023-11-16T04:07:36.930Z,98509.03
2023-11-16T04:12:39.422Z,98515.16
2023-11-16T04:17:41.539Z,98519.56
2023-11-16T04:22:43.544Z,98526.38
2023-11-16T04:27:46.145Z,98526.34
2023-11-16T04:32:47.974Z,98528.31
2023-11-16T04:37:50.049Z,98529.22
2023-11-16T04:42:52.099Z,98535.16
2023-11-16T04:47:54.323Z,98536.31
2023-11-16T04:52:56.634Z,98541.31
2023-11-16T04:57:58.705Z,98540.50
2023-11-16T05:03:00.841Z,98541.41
2023-11-16T05:08:03.080Z,98551.06
2023-11-16T05:13:05.219Z,98561.34
2023-11-16T05:18:07.436Z,98557.16
2023-11-16T05:23:09.518Z,98564.03
2023-11-16T05:28:11.836Z,98569.28
2023-11-16T05:33:14.098Z,98565.69
2023-11-16T05:38:16.171Z,98559.75
2023-11-16T05:43:18.156Z,98570.22
2023-11-16T05:48:20.209Z,98572.81
2023-11-16T05:53:22.247Z,98570.97
2023-11-16T05:58:24.837Z,98576.09
2023-11-16T06:03:27.027Z,98585.66
2023-11-16T06:08:29.155Z,98581.38
2023-11-16T06:13:31.145Z,98583.13
2023-11-16T06:18:33.120Z,98591.66
2023-11-16T06:23:35.367Z,98597.69
2023-11-16T06:28:37.548Z,98603.75
2023-11-16T06:33:39.616Z,98597.69
2023-11-16T06:38:41.651Z,98607.97
2023-11-16T06:43:43.947Z,98614.09
2023-11-16T06:48:45.950Z,98614.03
2023-11-16T06:53:47.968Z,98618.47
2023-11-16T06:58:50.006Z,98617.75
2023-11-16T07:03:52.229Z,98613.38
2023-11-16T07:08:54.322Z,98614.41
2023-11-16T07:13:56.198Z,98626.41
2023-11-16T07:18:59.688Z,98629.91
2023-11-16T07:24:01.872Z,98634.28
2023-11-16T07:29:03.994Z,98632.53
2023-11-16T07:34:05.957Z,98629.13
2023-11-16T07:39:07.989Z,98641.19
2023-11-16T07:44:10.044Z,98649.16
2023-11-16T07:49:12.058Z,98655.13
2023-11-16T07:54:14.159Z,98654.16
2023-11-16T07:59:16.185Z,98650.91
2023-11-16T08:04:18.371Z,98656.88
2023-11-16T08:09:22.090Z,98661.19
2023-11-16T08:14:24.915Z,98668.75
2023-11-16T08:19:27.047Z,98667.91
2023-11-16T08:24:29.710Z,98671.25
2023-11-16T08:29:31.738Z,98668.81
2023-11-16T08:34:33.825Z,98679.25
2023-11-16T08:39:35.826Z,98674.13
2023-11-16T08:44:37.703Z,98664.50
2023-11-16T08:49:39.791Z,98672.19
2023-11-16T08:54:42.673Z,98683.72
2023-11-16T08:59:44.727Z,98679.38
2023-11-16T09:04:46.831Z,98670.66
2023-11-16T09:09:48.812Z,98680.03
2023-11-16T09:14:50.936Z,98675.69
2023-11-16T09:19:52.973Z,98679.00
2023-11-16T09:24:55.113Z,98677.16
2023-11-16T09:29:57.137Z,98680.72
2023-11-16T09:35:06.667Z,98685.88
2023-11-16T09:40:15.052Z,98696.25
2023-11-16T09:45:18.087Z,98691.19
2023-11-16T09:50:20.116Z,98701.53
2023-11-16T09:55:22.144Z,98705.31
2023-11-16T10:00:24.246Z,98715.66
2023-11-16T10:05:29.446Z,98708.75
2023-11-16T10:10:31.461Z,98708.97
2023-11-16T10:15:33.675Z,98712.31
2023-11-16T10:20:39.141Z,98715.75
2023-11-16T10:25:41.743Z,98724.63
2023-11-16T10:30:44.874Z,98722.78
2023-11-16T10:35:46.992Z,98718.38
2023-11-16T10:40:50.190Z,98717.50
2023-11-16T10:45:52.509Z,98714.72
2023-11-16T10:50:56.869Z,98727.78
2023-11-16T10:55:58.861Z,98722.41
2023-11-16T11:01:01.458Z,98730.22
2023-11-16T11:06:03.713Z,98742.34
2023-11-16T11:11:06.173Z,98735.31
2023-11-16T11:16:08.495Z,98749.28
2023-11-16T11:21:10.754Z,98747.72
2023-11-16T11:26:13.110Z,98750.28
2023-11-16T11:31:15.474Z,98758.06
2023-11-16T11:36:18.596Z,98759.13
2023-11-16T11:41:20.725Z,98761.78
2023-11-16T11:46:22.895Z,98759.16
2023-11-16T11:51:25.007Z,98761.72
2023-11-16T11:56:27.237Z,98767.78
2023-11-16T12:01:29.354Z,98778.19
2023-11-16T12:06:31.661Z,98780.84
2023-11-16T12:11:33.676Z,98779.91
2023-11-16T12:16:35.730Z,98786.00
2023-11-16T12:21:39.391Z,98780.84
2023-11-16T12:26:41.478Z,98786.94
2023-11-16T12:31:43.680Z,98782.63
2023-11-16T12:36:45.900Z,98791.28
2023-11-16T12:41:48.216Z,98791.28
2023-11-16T12:46:51.109Z,98793.84
2023-11-16T12:51:53.142Z,98803.28
2023-11-16T12:56:55.167Z,98800.75
2023-11-16T13:01:57.245Z,98802.50
2023-11-16T13:06:59.290Z,98811.25
2023-11-16T13:12:11.731Z,98815.44
2023-11-16T13:17:18.807Z,98818.03
2023-11-16T13:22:20.864Z,98823.19
2023-11-16T13:27:28.748Z,98824.13
2023-11-16T13:32:37.232Z,98832.69
2023-11-16T13:37:39.346Z,98834.44
2023-11-16T13:42:41.880Z,98839.69
2023-11-16T13:47:44.177Z,98833.56
2023-11-16T13:52:49.261Z,98837.94
2023-11-16T13:57:52.398Z,98838.75
2023-11-16T14:02:54.679Z,98839.63
2023-11-16T14:07:56.727Z,98848.34
2023-11-16T14:12:58.825Z,98847.53
2023-11-16T14:18:00.865Z,98856.16
2023-11-16T14:23:02.876Z,98859.63
2023-11-16T14:28:05.108Z,98860.41
2023-11-16T14:33:07.170Z,98863.88
2023-11-16T14:38:09.195Z,98865.63
2023-11-16T14:43:11.348Z,98864.75
2023-11-16T14:48:13.501Z,98868.19
2023-11-16T14:53:21.834Z,98868.19
2023-11-16T14:58:27.302Z,98870.75
2023-11-16T15:03:29.451Z,98876.78
2023-11-16T15:08:31.598Z,98876.88
2023-11-16T15:13:34.342Z,98885.56
2023-11-16T15:18:37.411Z,98893.28
2023-11-16T15:23:39.560Z,98898.47
2023-11-16T15:28:41.771Z,98904.50
2023-11-16T15:33:43.900Z,98914.00
2023-11-16T15:38:45.939Z,98919.22
2023-11-16T15:43:48.009Z,98912.31
2023-11-16T15:48:50.248Z,98923.56
2023-11-16T15:53:53.298Z,98922.69
2023-11-16T15:58:56.103Z,98924.41
2023-11-16T16:03:59.153Z,98938.19
2023-11-16T16:09:01.665Z,98937.41
2023-11-16T16:14:04.785Z,98927.88
2023-11-16T16:19:07.037Z,98940.00
2023-11-16T16:24:09.655Z,98946.06
2023-11-16T16:29:11.963Z,98942.56
2023-11-16T16:34:14.777Z,98944.31
2023-11-16T16:39:17.285Z,98945.16
2023-11-16T16:44:19.521Z,98959.88
2023-11-16T16:49:24.542Z,98952.13
2023-11-16T16:54:27.079Z,98956.47
2023-11-16T16:59:29.245Z,98959.91
2023-11-16T17:04:31.192Z,98956.44
2023-11-16T17:09:33.441Z,98956.44
2023-11-16T17:14:36.701Z,98956.41
2023-11-16T17:19:38.829Z,98967.66
2023-11-16T17:24:41.038Z,98971.13
2023-11-16T17:29:45.221Z,98964.22
2023-11-16T17:34:48.230Z,98961.63
2023-11-16T17:39:50.665Z,98965.97
2023-11-16T17:44:52.438Z,98971.16
2023-11-16T17:49:54.561Z,98980.66
2023-11-16T17:54:56.833Z,98992.75
2023-11-16T17:59:58.892Z,98996.16
2023-11-16T18:05:01.074Z,98997.00
2023-11-16T18:10:04.127Z,99009.94
2023-11-16T18:15:06.724Z,99013.38
2023-11-16T18:20:08.833Z,99027.03
2023-11-16T18:25:10.902Z,99030.34
2023-11-16T18:30:13.582Z,99039.81
2023-11-16T18:35:15.737Z,99043.28
2023-11-16T18:40:18.011Z,99043.34
2023-11-16T18:45:21.482Z,99042.56
2023-11-16T18:50:23.772Z,99049.41
2023-11-16T18:55:26.105Z,99055.38
2023-11-16T19:00:28.096Z,99063.09
2023-11-16T19:05:30.285Z,99065.66
2023-11-16T19:10:32.341Z,99079.31
2023-11-16T19:15:34.481Z,99091.34
2023-11-16T19:20:36.670Z,99079.09
2023-11-16T19:25:38.967Z,99092.03
2023-11-16T19:30:41.181Z,99097.16
2023-11-16T19:35:43.460Z,99091.97
2023-11-16T19:40:45.610Z,99092.94
2023-11-16T19:45:47.579Z,99095.56
2023-11-16T19:50:49.953Z,99095.44
2023-11-16T19:55:52.210Z,99090.25
2023-11-16T20:00:54.515Z,99101.28
2023-11-16T20:05:56.781Z,99105.69
2023-11-16T20:10:58.941Z,99118.53
2023-11-16T20:16:01.552Z,99124.78
2023-11-16T20:21:03.936Z,99123.88
2023-11-16T20:26:06.350Z,99129.78
2023-11-16T20:31:08.440Z,99141.13
2023-11-16T20:36:10.824Z,99147.41
2023-11-16T20:41:12.984Z,99141.41
2023-11-16T20:46:15.282Z,99144.00
2023-11-16T20:51:17.626Z,99153.41
2023-11-16T20:56:19.722Z,99160.44
2023-11-16T21:01:21.913Z,99168.16
2023-11-16T21:06:24.327Z,99168.03
2023-11-16T21:11:26.454Z,99174.91
2023-11-16T21:16:28.625Z,99185.09
2023-11-16T21:21:30.818Z,99183.25
2023-11-16T21:26:35.923Z,99179.13
2023-11-16T21:31:38.284Z,99188.47
2023-11-16T21:36:43.409Z,99200.53
2023-11-16T21:41:45.505Z,99197.78
2023-11-16T21:46:47.712Z,99203.00
2023-11-16T21:51:49.758Z,99213.91
2023-11-16T21:56:52.722Z,99214.09
2023-11-16T22:01:54.866Z,99215.06
2023-11-16T22:06:57.102Z,99225.25
2023-11-16T22:11:59.423Z,99231.00
2023-11-16T22:17:01.505Z,99235.41
2023-11-16T22:22:03.717Z,99233.69
2023-11-16T22:27:05.864Z,99236.09
2023-11-16T22:32:08.040Z,99241.47
2023-11-16T22:37:10.189Z,99251.81
2023-11-16T22:42:12.277Z,99249.34
2023-11-16T22:47:14.454Z,99257.75
2023-11-16T22:52:16.656Z,99260.41
2023-11-16T22:57:18.701Z,99256.88
2023-11-16T23:02:20.832Z,99258.78
2023-11-16T23:07:22.919Z,99270.81
2023-11-16T23:12:25.138Z,99265.69
2023-11-16T23:17:27.920Z,99271.00
2023-11-16T23:22:29.819Z,99277.53
2023-11-16T23:27:31.953Z,99287.84
2023-11-16T23:32:33.986Z,99293.13
2023-11-16T23:37:36.060Z,99308.81
2023-11-16T23:42:37.995Z,99303.56
2023-11-16T23:47:40.328Z,99303.59
2023-11-16T23:52:42.308Z,99302.44
2023-11-16T23:57:44.447Z,99309.31
